Hot Springs, VA

11:55 AM EDT on April 21, 2018 (GMT -0400)
Ingalls

Weather History for KHSP - November, 2012

Change the Weather History Date:

Tuesday, November 13, 2012

  Actual Average Record
Temperature  
Mean Temperature 30 °F -  
Max Temperature 37 °F 44 °F 62 °F (2010)
Min Temperature 24 °F 31 °F 14 °F (1996)
Degree Days  
Heating Degree Days 34    
Moisture  
Dew Point 25 °F    
Average Humidity 81    
Maximum Humidity 100    
Minimum Humidity 52    
Precipitation  
Precipitation 0.10 in - - ()
Sea Level Pressure  
Sea Level Pressure 30.32 in    
Wind  
Wind Speed 15 mph (NW)    
Max Wind Speed 24 mph    
Max Gust Speed 31 mph    
Visibility 8 miles    
Events Fog , Rain , Snow    
Averages and records for this station are not official NWS values.
T = Trace of Precipitation, MM = Missing Value Source: NWS Daily Summary

Daily Weather History Graph

Daily Weather History Graph

Search for Another Location

Airport or City:

Astronomy

Nov. 13, 2012 Rise Set
Actual Time 6:58 AM EST 5:08 PM EST
Civil Twilight 6:30 AM EST 5:36 PM EST
Nautical Twilight 5:58 AM EST 6:08 PM EST
Astronomical Twilight 5:27 AM EST 6:39 PM EST
Moon 6:34 AM EST (11/13) 5:00 PM EST (11/13)
Length of Visible Light 11h 06m
Length of Day
10h 10m
Waning Crescent, 0% of the Moon is Illuminated
Nov 13
Waning Crescent
Nov 13
New
Nov 20
First Quarter
Nov 28
Full
Dec 6
Last Quarter

Hourly Weather History & Observations

Time (EST) Temp. Windchill Dew Point Humidity Pressure Visibility Wind Dir Wind Speed Gust Speed Precip Events Conditions
12:15 AM 37.4 °F 26.4 °F 37.4 °F 100% 30.26 in 0.2 mi WNW 23.0 mph 31.1 mph N/A Snow Light Snow
12:35 AM 35.6 °F 24.5 °F 35.6 °F 100% 30.26 in 0.2 mi WNW 20.7 mph 26.5 mph N/A Snow Light Snow
1:18 AM 35.6 °F 23.7 °F 35.6 °F 100% 30.26 in 1.8 mi West 24.2 mph 29.9 mph 0.02 in Snow Light Snow
1:40 AM 35.6 °F 24.5 °F 35.6 °F 100% 30.25 in 10.0 mi WNW 20.7 mph - 0.02 in Rain Light Rain
1:58 AM 35.6 °F 24.8 °F 35.6 °F 100% 30.24 in 1.5 mi WNW 19.6 mph - 0.02 in Snow Light Snow
2:35 AM 33.8 °F 22.2 °F 33.8 °F 100% 30.24 in 0.2 mi West 20.7 mph 25.3 mph 0.03 in Snow Light Snow
3:00 AM 33.8 °F 21.9 °F 33.8 °F 100% 30.24 in 0.2 mi West 21.9 mph 27.6 mph 0.02 in   Overcast
3:22 AM 32.0 °F 20.1 °F 32.0 °F 100% 30.24 in 0.2 mi WNW 19.6 mph - 0.04 in Snow Snow
3:55 AM 32.0 °F 20.5 °F 32.0 °F 100% 30.24 in 0.2 mi West 18.4 mph 24.2 mph N/A   Overcast
4:15 AM 32.0 °F 20.5 °F 32.0 °F 100% 30.24 in 0.2 mi West 18.4 mph - 0.01 in   Overcast
4:55 AM 32.0 °F 21.6 °F 32.0 °F 100% 30.25 in 0.2 mi WNW 15.0 mph 18.4 mph N/A Snow Light Snow
5:15 AM 32.0 °F 21.2 °F 32.0 °F 100% 30.23 in 0.2 mi NW 16.1 mph 20.7 mph N/A Snow Light Snow
5:35 AM 30.2 °F 20.2 °F 30.2 °F 100% 30.24 in 0.2 mi WNW 12.7 mph 20.7 mph N/A Fog Light Freezing Fog
5:55 AM 28.4 °F 17.0 °F 28.4 °F 100% 30.26 in 0.8 mi WNW 15.0 mph - N/A   Overcast
6:15 AM 26.6 °F 14.3 °F 26.6 °F 100% 30.26 in 10.0 mi NW 16.1 mph - N/A   Overcast
6:55 AM 24.8 °F 12.4 °F 24.8 °F 100% 30.27 in 10.0 mi WNW 15.0 mph 18.4 mph N/A   Clear
7:15 AM 24.8 °F 11.9 °F 24.8 °F 100% 30.28 in 10.0 mi NW 16.1 mph 20.7 mph N/A   Scattered Clouds
7:35 AM 24.8 °F 11.9 °F 24.8 °F 100% 30.29 in 10.0 mi WNW 16.1 mph 20.7 mph N/A   Clear
7:55 AM 24.8 °F 11.5 °F 24.8 °F 100% 30.30 in 10.0 mi WNW 17.3 mph 20.7 mph N/A   Scattered Clouds
8:15 AM 24.8 °F 12.4 °F 24.8 °F 100% 30.30 in 10.0 mi WNW 15.0 mph 24.2 mph N/A   Clear
8:35 AM 24.8 °F 12.9 °F 24.8 °F 100% 30.31 in 10.0 mi WNW 13.8 mph 21.9 mph N/A   Clear
8:55 AM 24.8 °F 11.5 °F 24.8 °F 100% 30.32 in 10.0 mi NW 17.3 mph 24.2 mph N/A   Clear
9:15 AM 24.8 °F 12.4 °F 24.8 °F 100% 30.32 in 10.0 mi NW 15.0 mph 21.9 mph N/A   Clear
9:35 AM 26.6 °F 16.2 °F 26.6 °F 100% 30.33 in 10.0 mi WNW 11.5 mph - N/A   Clear
10:35 AM 28.4 °F 18.5 °F 26.6 °F 93% 30.33 in 10.0 mi WNW 11.5 mph 16.1 mph N/A   Clear
10:55 AM 28.4 °F 18.5 °F 26.6 °F 93% 30.34 in 10.0 mi WNW 11.5 mph 16.1 mph N/A   Clear
11:15 AM 30.2 °F 20.8 °F 26.6 °F 86% 30.34 in 10.0 mi WNW 11.5 mph - N/A   Clear
12:18 PM 33.8 °F 27.0 °F 28.4 °F 81% 30.31 in 10.0 mi NW 8.1 mph - N/A   Clear
12:35 PM 33.8 °F 25.3 °F 26.6 °F 75% 30.31 in 10.0 mi WNW 11.5 mph - N/A   Clear
12:37 PM 33.8 °F 24.8 °F 26.6 °F 75% 30.31 in 10.0 mi WNW 12.7 mph - N/A   Clear
12:55 PM 35.6 °F 27.5 °F 26.6 °F 70% 30.31 in 10.0 mi NW 11.5 mph 17.3 mph N/A   Clear
1:15 PM 35.6 °F 27.5 °F 24.8 °F 65% 30.30 in 10.0 mi NW 11.5 mph 18.4 mph N/A   Clear
1:35 PM 35.6 °F 28.0 °F 24.8 °F 65% 30.30 in 10.0 mi WNW 10.4 mph - N/A   Clear
2:15 PM 37.4 °F 30.8 °F 21.2 °F 52% 30.30 in 10.0 mi NW 9.2 mph - N/A   Clear
2:35 PM 37.4 °F 30.8 °F 21.2 °F 52% 30.31 in 10.0 mi NW 9.2 mph - N/A   Clear
2:55 PM 37.4 °F 32.1 °F 21.2 °F 52% 30.30 in 10.0 mi NW 6.9 mph - N/A   Unknown
3:15 PM 37.4 °F 31.4 °F 21.2 °F 52% 30.31 in 10.0 mi WNW 8.1 mph - N/A   Clear
3:35 PM 37.4 °F 32.1 °F 21.2 °F 52% 30.31 in 10.0 mi NW 6.9 mph - N/A   Clear
3:55 PM 37.4 °F 32.1 °F 21.2 °F 52% 30.31 in 10.0 mi NW 6.9 mph - N/A   Clear
4:15 PM 35.6 °F 29.9 °F 21.2 °F 56% 30.32 in 10.0 mi NNW 6.9 mph - N/A   Clear
4:35 PM 35.6 °F 29.9 °F 21.2 °F 56% 30.33 in 10.0 mi NNW 6.9 mph - N/A   Clear
4:55 PM 35.6 °F 29.2 °F 21.2 °F 56% 30.33 in 10.0 mi NNW 8.1 mph - N/A   Clear
5:15 PM 33.8 °F 27.7 °F 21.2 °F 60% 30.33 in 10.0 mi NNW 6.9 mph - N/A   Clear
5:35 PM 32.0 °F 26.4 °F 21.2 °F 64% 30.34 in 10.0 mi NNW 5.8 mph - N/A   Clear
5:55 PM 32.0 °F 24.8 °F 21.2 °F 64% 30.34 in 10.0 mi NW 8.1 mph - N/A   Clear
6:15 PM 32.0 °F 24.8 °F 21.2 °F 64% 30.35 in 10.0 mi NW 8.1 mph - N/A   Clear
6:55 PM 30.2 °F 22.6 °F 21.2 °F 69% 30.36 in 10.0 mi NNW 8.1 mph - N/A   Clear
7:15 PM 30.2 °F 24.3 °F 21.2 °F 69% 30.36 in 10.0 mi NW 5.8 mph - N/A   Clear
7:35 PM 30.2 °F 23.4 °F 21.2 °F 69% 30.37 in 10.0 mi NW 6.9 mph - N/A   Clear
7:55 PM 28.4 °F 20.4 °F 21.2 °F 74% 30.37 in 10.0 mi WNW 8.1 mph - N/A   Clear
8:15 PM 28.4 °F 21.2 °F 21.2 °F 74% 30.38 in 10.0 mi NW 6.9 mph - N/A   Clear
8:35 PM 28.4 °F 22.2 °F 21.2 °F 74% 30.38 in 10.0 mi WNW 5.8 mph - N/A   Clear
8:55 PM 28.4 °F 22.2 °F 21.2 °F 74% 30.38 in 10.0 mi NW 5.8 mph - N/A   Clear
9:15 PM 28.4 °F 23.3 °F 21.2 °F 74% 30.38 in 10.0 mi WNW 4.6 mph - N/A   Clear
9:35 PM 28.4 °F 23.3 °F 21.2 °F 74% 30.39 in 10.0 mi NW 4.6 mph - N/A   Clear
9:55 PM 26.6 °F 22.6 °F 21.2 °F 80% 30.39 in 10.0 mi WNW 3.5 mph - N/A   Clear
10:15 PM 26.6 °F 22.6 °F 21.2 °F 80% 30.39 in 10.0 mi WNW 3.5 mph - N/A   Clear
10:35 PM 26.6 °F - 21.2 °F 80% 30.39 in 10.0 mi Calm Calm - N/A   Clear
10:55 PM 26.6 °F 22.6 °F 21.2 °F 80% 30.39 in 10.0 mi NW 3.5 mph - N/A   Clear
11:15 PM 24.8 °F - 21.2 °F 86% 30.39 in 10.0 mi Calm Calm - N/A   Clear
11:35 PM 26.6 °F 22.6 °F 21.2 °F 80% 30.39 in 10.0 mi NW 3.5 mph - N/A   Clear
11:55 PM 26.6 °F - 21.2 °F 80% 30.38 in 10.0 mi Calm Calm - N/A   Clear